Time;durP1;ratioP1;P1;durP2;ratioP2;P2;SDS_P1;SDS_P2;PMS_P1;PMS_P2;Temp;Humidity;BMP_temperature;BMP_pressure;BME280_temperature;BME280_humidity;BME280_pressure;Samples;Min_cycle;Max_cycle;Signal;HPM_P1;HPM_P2
2022/10/09 00:04:32;;;;;;;;;30.00;28.33;;;;;12.14;93.79;101662.19;4892509;29;45845;-85
2022/10/09 00:06:57;;;;;;;;;24.00;24.00;;;;;12.12;93.63;101665.66;4890285;29;47074;-85
2022/10/09 00:09:23;;;;;;;;;30.33;28.33;;;;;12.11;94.74;101675.44;4891123;29;45330;-86
2022/10/09 00:11:48;;;;;;;;;34.33;31.33;;;;;12.08;94.82;101669.13;4887071;29;45938;-85
2022/10/09 00:14:13;;;;;;;;;25.67;25.67;;;;;12.04;94.88;101668.19;4868682;29;45454;-86
2022/10/09 00:16:39;;;;;;;;;32.33;28.67;;;;;11.99;94.91;101664.50;4874114;29;46995;-85
2022/10/09 00:19:04;;;;;;;;;32.33;27.33;;;;;11.99;95.40;101667.16;4871338;29;45423;-86
2022/10/09 00:21:32;;;;;;;;;33.00;30.00;;;;;11.97;95.41;101671.56;4875194;29;45462;-86
2022/10/09 00:24:00;;;;;;;;;25.00;25.00;;;;;11.93;95.76;101665.25;4859604;29;45399;-84
2022/10/09 00:26:26;;;;;;;;;32.00;29.00;;;;;11.92;95.94;101668.81;4859198;29;48256;-84
2022/10/09 00:28:51;;;;;;;;;27.67;27.67;;;;;11.86;96.21;101662.41;4876321;29;45286;-84
2022/10/09 00:31:18;;;;;;;;;28.33;26.67;;;;;11.89;96.29;101658.06;4867308;29;44776;-84
2022/10/09 00:33:43;;;;;;;;;27.33;26.33;;;;;11.85;96.55;101657.91;4877825;29;45454;-86
2022/10/09 00:36:20;;;;;;;;;29.00;27.67;;;;;11.84;96.26;101650.81;4873919;29;47903;-85
2022/10/09 00:38:48;;;;;;;;;30.00;30.00;;;;;11.85;96.46;101660.59;4859941;29;45497;-85
2022/10/09 00:41:24;;;;;;;;;33.67;29.33;;;;;11.82;96.87;101662.31;4859631;29;45227;-85
2022/10/09 00:43:56;;;;;;;;;30.33;27.33;;;;;11.81;97.56;101663.19;4860571;29;44748;-85
2022/10/09 00:46:36;;;;;;;;;32.00;28.00;;;;;11.76;97.69;101655.94;4857976;29;45016;-85
2022/10/09 00:49:31;;;;;;;;;34.33;31.00;;;;;11.76;97.66;101662.16;4868039;29;45806;-85
2022/10/09 00:52:00;;;;;;;;;26.33;24.67;;;;;11.72;97.81;101648.75;4856674;29;45446;-85
2022/10/09 00:54:30;;;;;;;;;30.33;29.00;;;;;11.69;97.69;101649.56;4875933;29;45436;-85
2022/10/09 00:56:56;;;;;;;;;32.33;29.67;;;;;11.69;97.98;101660.22;4875233;29;47142;-85
2022/10/09 00:59:22;;;;;;;;;27.00;24.33;;;;;11.63;98.20;101648.50;4874319;29;45404;-85
2022/10/09 01:01:49;;;;;;;;;32.33;27.00;;;;;11.65;98.94;101653.00;4871855;29;45384;-85
2022/10/09 01:04:14;;;;;;;;;37.00;31.33;;;;;11.59;99.03;101642.19;4875087;29;44841;-85
2022/10/09 01:07:16;;;;;;;;;28.67;28.67;;;;;11.56;99.07;101645.69;4868059;29;47662;-85
2022/10/09 01:09:54;;;;;;;;;26.67;26.00;;;;;11.55;99.53;101640.31;4877086;28;45153;-85
2022/10/09 01:12:29;;;;;;;;;28.67;28.33;;;;;11.53;99.61;101640.31;4866712;28;44828;-85
2022/10/09 01:15:13;;;;;;;;;27.33;26.00;;;;;11.50;100.00;101631.34;4877351;28;45386;-85
2022/10/09 01:18:15;;;;;;;;;29.33;29.33;;;;;11.46;100.00;101630.34;4859015;29;45508;-85
2022/10/09 01:21:09;;;;;;;;;33.33;28.67;;;;;11.44;100.00;101624.09;4857235;29;45673;-85
2022/10/09 01:24:12;;;;;;;;;32.67;26.00;;;;;11.45;100.00;101628.53;4874417;29;45325;-86
2022/10/09 01:26:53;;;;;;;;;26.00;25.33;;;;;11.45;100.00;101623.22;4857472;29;45480;-86
2022/10/09 01:29:20;;;;;;;;;26.67;25.67;;;;;11.41;100.00;101624.00;4857717;29;46926;-86
2022/10/09 01:31:49;;;;;;;;;29.33;28.67;;;;;11.38;100.00;101614.19;4857706;29;45343;-86
2022/10/09 01:34:18;;;;;;;;;27.33;25.33;;;;;11.36;100.00;101612.34;4858528;29;44820;-85
2022/10/09 01:36:45;;;;;;;;;31.00;29.00;;;;;11.34;100.00;101606.97;4875672;29;45398;-86
2022/10/09 01:39:18;;;;;;;;;27.33;25.00;;;;;11.30;100.00;101596.22;4858401;29;46972;-85
2022/10/09 01:41:47;;;;;;;;;30.00;28.67;;;;;11.29;100.00;101597.06;4874556;29;45477;-85
2022/10/09 01:44:22;;;;;;;;;26.67;26.67;;;;;11.30;100.00;101589.13;4858892;29;45443;-85
2022/10/09 01:46:48;;;;;;;;;29.33;26.67;;;;;11.19;100.00;101572.88;4884126;29;44841;-85
2022/10/09 01:49:22;;;;;;;;;28.67;25.67;;;;;11.25;100.00;101580.13;4858871;29;46958;-85
2022/10/09 01:51:59;;;;;;;;;29.00;27.33;;;;;11.21;100.00;101581.81;4876076;29;44822;-86
2022/10/09 01:54:49;;;;;;;;;27.33;26.33;;;;;11.08;100.00;101549.53;4858457;29;45721;-85
2022/10/09 01:57:51;;;;;;;;;24.33;23.33;;;;;11.16;100.00;101574.56;4872924;29;45460;-85
2022/10/09 02:00:19;;;;;;;;;24.00;23.00;;;;;11.14;100.00;101573.63;4857902;29;46916;-85
2022/10/09 02:02:45;;;;;;;;;24.67;22.67;;;;;11.12;100.00;101562.94;4858047;29;44837;-86
2022/10/09 02:05:20;;;;;;;;;30.67;26.33;;;;;11.17;100.00;101571.06;4877905;29;44928;-86
2022/10/09 02:07:45;;;;;;;;;27.00;25.33;;;;;11.13;100.00;101566.50;4875918;29;45439;-85
2022/10/09 02:10:12;;;;;;;;;30.67;26.00;;;;;11.18;100.00;101568.41;4891573;29;45353;-85
2022/10/09 02:12:42;;;;;;;;;28.33;26.00;;;;;11.16;100.00;101561.25;4892544;29;45910;-85
2022/10/09 02:15:08;;;;;;;;;30.00;30.00;;;;;11.13;100.00;101554.09;4891910;29;44850;-85
2022/10/09 02:17:41;;;;;;;;;29.00;27.00;;;;;11.13;100.00;101545.19;4892734;29;45918;-85
2022/10/09 02:20:13;;;;;;;;;26.00;23.33;;;;;11.12;100.00;101548.72;4890973;29;47899;-86
2022/10/09 02:22:40;;;;;;;;;29.33;28.67;;;;;11.08;100.00;101538.88;4892660;29;45515;-86
2022/10/09 02:25:06;;;;;;;;;26.67;23.33;;;;;11.05;100.00;101537.03;4892168;29;44802;-85
2022/10/09 02:27:32;;;;;;;;;26.00;24.00;;;;;11.05;100.00;101541.44;4893924;29;45389;-86
2022/10/09 02:29:59;;;;;;;;;29.67;26.00;;;;;11.08;100.00;101538.88;4876470;29;47274;-86
2022/10/09 02:32:25;;;;;;;;;25.33;23.67;;;;;10.94;100.00;101522.56;4894162;29;45480;-85
2022/10/09 02:34:51;;;;;;;;;27.00;25.67;;;;;11.02;100.00;101534.28;4902732;29;45424;-85
2022/10/09 02:37:17;;;;;;;;;30.00;27.00;;;;;10.94;100.00;101531.44;4875710;29;44925;-85
2022/10/09 02:39:42;;;;;;;;;26.67;26.67;;;;;10.92;100.00;101530.50;4876810;29;46632;-85
2022/10/09 02:42:09;;;;;;;;;26.00;24.00;;;;;10.86;100.00;101517.03;4892970;29;45393;-84
2022/10/09 02:44:34;;;;;;;;;27.67;25.00;;;;;10.86;100.00;101519.69;4892189;29;45370;-85
2022/10/09 02:47:00;;;;;;;;;28.67;24.33;;;;;10.85;100.00;101517.91;4890910;29;45499;-85
2022/10/09 02:49:25;;;;;;;;;23.67;23.67;;;;;10.83;100.00;101514.31;4876248;29;47576;-85
2022/10/09 02:51:51;;;;;;;;;27.00;25.00;;;;;10.78;100.00;101514.16;4903070;29;44817;-85
2022/10/09 02:54:16;;;;;;;;;25.00;23.67;;;;;10.70;100.00;101501.53;4879585;29;45332;-84
2022/10/09 02:56:42;;;;;;;;;11.67;11.67;;;;;10.74;100.00;101509.63;4880289;29;45849;-85
2022/10/09 02:59:07;;;;;;;;;29.33;25.00;;;;;10.75;100.00;101503.47;4871918;29;46814;-84
2022/10/09 03:01:34;;;;;;;;;23.00;21.00;;;;;10.76;100.00;101512.34;4874625;29;45292;-85
2022/10/09 03:03:59;;;;;;;;;21.00;21.00;;;;;10.65;100.00;101492.56;4873125;29;45440;-85
2022/10/09 03:06:27;;;;;;;;;29.00;23.00;;;;;10.67;100.00;101496.16;4875010;29;45349;-86
2022/10/09 03:08:53;;;;;;;;;24.67;21.00;;;;;10.70;100.00;101510.41;4872872;29;46714;-85
2022/10/09 03:11:20;;;;;;;;;27.67;24.67;;;;;10.65;100.00;101504.09;4872863;29;44658;-85
2022/10/09 03:13:46;;;;;;;;;24.00;23.33;;;;;10.61;100.00;101500.44;4872106;29;45374;-85
2022/10/09 03:16:17;;;;;;;;;21.00;21.00;;;;;10.59;100.00;101498.63;4872737;29;45339;-85
2022/10/09 03:18:44;;;;;;;;;23.33;22.67;;;;;10.57;100.00;101493.25;4872293;29;46183;-85
2022/10/09 03:21:13;;;;;;;;;21.00;18.33;;;;;10.54;100.00;101495.84;4874004;29;44714;-85
2022/10/09 03:23:40;;;;;;;;;24.67;23.33;;;;;10.54;100.00;101500.22;4872728;29;45498;-85
2022/10/09 03:26:09;;;;;;;;;26.00;23.67;;;;;10.53;100.00;101494.03;4872885;29;45525;-84
2022/10/09 03:28:39;;;;;;;;;25.33;25.33;;;;;10.51;100.00;101493.09;4872212;29;47229;-85
2022/10/09 03:31:05;;;;;;;;;27.00;24.33;;;;;10.51;100.00;101492.19;4872341;29;44901;-85
2022/10/09 03:33:32;;;;;;;;;27.00;25.33;;;;;10.47;100.00;101493.88;4889412;29;45475;-85
2022/10/09 03:35:58;;;;;;;;;26.33;24.67;;;;;10.42;100.00;101487.50;4875734;29;45277;-85
2022/10/09 03:38:23;;;;;;;;;23.00;21.33;;;;;10.38;100.00;101483.91;4872426;29;47205;-85
2022/10/09 03:40:49;;;;;;;;;23.00;22.67;;;;;10.34;100.00;101491.72;4874932;29;44759;-86
2022/10/09 03:43:14;;;;;;;;;26.00;25.67;;;;;10.18;100.00;101469.13;4873620;29;45690;-86
2022/10/09 03:45:40;;;;;;;;;20.67;17.67;;;;;10.25;100.00;101475.50;4885687;29;45343;-85
2022/10/09 03:48:07;;;;;;;;;21.67;20.67;;;;;10.23;100.00;101480.78;4856328;29;47607;-84
2022/10/09 03:50:33;;;;;;;;;23.67;22.33;;;;;10.21;100.00;101483.38;4874206;29;45488;-84
2022/10/09 03:52:58;;;;;;;;;19.33;19.33;;;;;10.20;100.00;101484.25;4873452;29;44787;-84
2022/10/09 03:55:24;;;;;;;;;25.67;23.33;;;;;10.13;100.00;101482.28;4873736;29;45483;-85
2022/10/09 03:57:49;;;;;;;;;22.33;21.00;;;;;10.11;100.00;101481.34;4874161;29;45228;-85
2022/10/09 04:00:15;;;;;;;;;19.00;19.00;;;;;10.13;100.00;101482.28;4876030;29;45633;-85
2022/10/09 04:02:41;;;;;;;;;22.00;22.00;;;;;10.11;100.00;101484.00;4885636;29;45432;-85
2022/10/09 04:05:07;;;;;;;;;22.00;20.67;;;;;9.98;100.00;101461.50;4875965;29;44939;-85
2022/10/09 04:07:33;;;;;;;;;18.67;18.67;;;;;10.04;100.00;101471.41;4876112;29;46607;-85
2022/10/09 04:09:59;;;;;;;;;21.67;21.67;;;;;10.04;100.00;101470.47;4876304;29;45297;-85
2022/10/09 04:12:24;;;;;;;;;19.00;19.00;;;;;9.98;100.00;101466.81;4875450;29;44953;-84
2022/10/09 04:14:50;;;;;;;;;24.33;24.00;;;;;9.97;100.00;101465.00;4878585;29;45115;-85
2022/10/09 04:17:15;;;;;;;;;25.00;22.67;;;;;9.98;100.00;101468.56;4892407;28;45346;-85
2022/10/09 04:19:42;;;;;;;;;18.67;18.67;;;;;9.98;100.00;101473.91;4889365;29;45413;-85
2022/10/09 04:22:07;;;;;;;;;18.67;18.67;;;;;9.89;100.00;101461.22;4875286;29;44743;-85
2022/10/09 04:24:33;;;;;;;;;20.33;19.33;;;;;9.74;100.00;101437.78;4891788;29;45652;-85
2022/10/09 04:26:58;;;;;;;;;23.00;19.33;;;;;9.85;100.00;101453.13;4890023;29;48234;-85
2022/10/09 04:29:24;;;;;;;;;20.33;19.67;;;;;9.90;100.00;101463.03;4875476;29;45553;-85
2022/10/09 04:31:50;;;;;;;;;20.33;20.00;;;;;9.88;100.00;101463.88;4893524;29;45349;-85
2022/10/09 04:34:16;;;;;;;;;17.67;17.67;;;;;9.87;100.00;101467.34;4891620;29;44967;-85
2022/10/09 04:36:41;;;;;;;;;27.00;23.00;;;;;9.86;100.00;101457.59;4891474;29;47785;-86
2022/10/09 04:39:06;;;;;;;;;21.00;19.33;;;;;9.74;100.00;101453.72;4891434;29;45426;-85
2022/10/09 04:41:32;;;;;;;;;20.67;17.00;;;;;9.84;100.00;101469.91;4877718;29;45330;-85
2022/10/09 04:43:57;;;;;;;;;19.67;19.67;;;;;9.76;100.00;101465.28;4890057;29;44833;-84
2022/10/09 04:46:23;;;;;;;;;23.00;23.00;;;;;9.79;100.00;101465.38;4891421;29;46646;-84
2022/10/09 04:48:48;;;;;;;;;23.33;20.33;;;;;9.74;100.00;101461.69;4892446;29;44838;-85
2022/10/09 04:51:16;;;;;;;;;23.67;21.67;;;;;9.67;100.00;101449.06;4891738;29;45368;-86
2022/10/09 04:53:43;;;;;;;;;17.33;17.00;;;;;9.65;100.00;101448.13;4891960;29;44824;-86
2022/10/09 04:56:58;;;;;;;;;15.33;15.33;;;;;9.68;100.00;101448.25;4890281;29;47627;-85
2022/10/09 04:59:24;;;;;;;;;20.67;18.00;;;;;9.61;100.00;101439.19;4874432;29;45671;-85
2022/10/09 05:01:49;;;;;;;;;20.00;17.67;;;;;9.59;100.00;101447.97;4892764;29;45296;-85
2022/10/09 05:04:14;;;;;;;;;26.00;21.67;;;;;9.56;100.00;101448.78;4876479;29;44776;-86
2022/10/09 05:06:40;;;;;;;;;22.00;22.00;;;;;9.55;100.00;101448.72;4904889;29;46707;-86
2022/10/09 05:09:05;;;;;;;;;21.00;20.67;;;;;9.49;100.00;101437.91;4893721;29;44816;-86
2022/10/09 05:11:31;;;;;;;;;25.67;22.67;;;;;9.55;100.00;101454.03;4883513;29;45528;-85
2022/10/09 05:13:56;;;;;;;;;19.67;19.67;;;;;9.55;100.00;101448.72;4878913;29;45464;-85
2022/10/09 05:16:25;;;;;;;;;17.00;16.00;;;;;9.43;100.00;101433.31;4906643;29;47003;-85
2022/10/09 05:19:28;;;;;;;;;17.67;17.67;;;;;9.46;100.00;101440.50;4901812;29;45704;-85
2022/10/09 05:21:54;;;;;;;;;18.67;18.67;;;;;9.40;100.00;101441.22;4895278;29;45761;-85
2022/10/09 05:24:19;;;;;;;;;20.00;20.00;;;;;9.39;100.00;101432.34;4895001;29;45348;-85
2022/10/09 05:26:45;;;;;;;;;18.67;17.67;;;;;9.43;100.00;101443.06;4899399;29;46901;-84
2022/10/09 05:29:10;;;;;;;;;18.67;18.67;;;;;9.31;100.00;101420.59;4894566;29;45322;-84
2022/10/09 05:31:37;;;;;;;;;20.67;20.33;;;;;9.33;100.00;101426.88;4878203;29;45344;-84
2022/10/09 05:34:03;;;;;;;;;14.00;14.00;;;;;9.37;100.00;101436.72;4878766;29;45395;-84
2022/10/09 05:36:29;;;;;;;;;20.33;20.33;;;;;9.37;100.00;101428.75;4891855;29;47765;-85
2022/10/09 05:38:55;;;;;;;;;20.00;18.67;;;;;9.35;100.00;101435.78;4877132;29;45427;-85
2022/10/09 05:41:21;;;;;;;;;19.67;17.33;;;;;9.33;100.00;101424.22;4894123;29;45449;-85
2022/10/09 05:43:48;;;;;;;;;15.00;14.00;;;;;9.38;100.00;101424.34;4892859;29;45428;-85
2022/10/09 05:46:17;;;;;;;;;17.67;17.67;;;;;9.33;100.00;101410.94;4893894;29;46359;-85
2022/10/09 05:48:46;;;;;;;;;21.33;20.33;;;;;9.39;100.00;101427.03;4894775;28;45794;-86
2022/10/09 05:51:17;;;;;;;;;17.67;16.67;;;;;9.32;100.00;101411.78;4895479;29;45642;-86
2022/10/09 05:53:43;;;;;;;;;16.33;15.33;;;;;9.35;100.00;101419.84;4894460;28;44861;-86
2022/10/09 05:56:16;;;;;;;;;20.00;18.33;;;;;9.29;100.00;101414.34;4897196;28;46289;-85
2022/10/09 05:58:43;;;;;;;;;21.67;20.00;;;;;9.29;100.00;101408.13;4895926;28;45637;-85
2022/10/09 06:01:08;;;;;;;;;17.33;16.00;;;;;9.30;100.00;101421.44;4880223;28;45432;-85
2022/10/09 06:03:36;;;;;;;;;18.00;18.00;;;;;9.29;100.00;101408.13;4879933;29;44840;-85
2022/10/09 06:06:11;;;;;;;;;17.67;15.33;;;;;9.27;100.00;101409.81;4895819;28;46827;-86
2022/10/09 06:08:37;;;;;;;;;19.67;19.67;;;;;9.27;100.00;101410.75;4878895;29;45423;-86
2022/10/09 06:11:14;;;;;;;;;16.00;16.00;;;;;9.27;100.00;101408.09;4891448;28;44860;-85
2022/10/09 06:13:41;;;;;;;;;18.67;16.33;;;;;9.27;100.00;101408.09;4892549;28;44792;-85
2022/10/09 06:16:07;;;;;;;;;19.00;19.00;;;;;9.30;100.00;101405.53;4892700;28;47396;-85
2022/10/09 06:18:32;;;;;;;;;15.67;15.67;;;;;9.33;100.00;101415.31;4895091;28;45190;-85
2022/10/09 06:21:00;;;;;;;;;19.00;16.33;;;;;9.34;100.00;101412.72;4895982;28;44760;-85
2022/10/09 06:23:26;;;;;;;;;20.00;18.67;;;;;9.24;100.00;101389.41;4894894;28;45390;-86
2022/10/09 06:25:57;;;;;;;;;19.33;17.67;;;;;9.34;100.00;101409.19;4881904;28;46844;-85
2022/10/09 06:28:23;;;;;;;;;14.33;14.33;;;;;9.28;100.00;101399.25;4895104;28;44769;-85
2022/10/09 06:30:49;;;;;;;;;18.33;18.33;;;;;9.34;100.00;101394.13;4895926;28;45473;-85
2022/10/09 06:33:17;;;;;;;;;16.33;16.33;;;;;9.38;100.00;101392.47;4878938;28;45778;-85
2022/10/09 06:35:42;;;;;;;;;17.00;15.00;;;;;9.44;100.00;101402.38;4894797;28;46101;-85
2022/10/09 06:38:08;;;;;;;;;20.67;20.67;;;;;9.38;100.00;101388.06;4890743;29;45415;-85
2022/10/09 06:40:35;;;;;;;;;22.33;21.33;;;;;9.48;100.00;101399.84;4896296;28;45174;-85
2022/10/09 06:43:02;;;;;;;;;22.33;19.67;;;;;9.54;100.00;101394.72;4894203;28;45308;-85
2022/10/09 06:45:35;;;;;;;;;12.00;9.33;;;;;9.56;100.00;101386.81;4896616;28;45332;-86
2022/10/09 06:48:01;;;;;;;;;18.00;16.00;;;;;9.61;100.00;101393.13;4880342;28;45338;-86
2022/10/09 06:50:26;;;;;;;;;23.33;20.67;;;;;9.68;100.00;101395.13;4874750;29;45380;-84
2022/10/09 06:52:51;;;;;;;;;21.00;20.67;;;;;9.77;100.00;101399.78;4876607;29;45285;-85
2022/10/09 06:55:17;;;;;;;;;19.33;15.67;;;;;9.74;100.00;101383.78;4891466;29;44993;-83
2022/10/09 06:57:42;;;;;;;;;22.00;17.67;;;;;9.89;100.00;101393.91;4892389;29;45440;-85
2022/10/09 07:00:08;;;;;;;;;22.67;21.67;;;;;9.95;100.00;101396.72;4893501;29;44781;-84
2022/10/09 07:02:33;;;;;;;;;24.00;22.67;;;;;10.00;100.00;101385.38;4893031;29;44960;-83
2022/10/09 07:04:59;;;;;;;;;20.33;20.33;;;;;10.09;100.00;101397.09;4893310;29;45309;-84
2022/10/09 07:07:24;;;;;;;;;22.00;21.00;;;;;10.11;100.00;101393.63;4893248;29;44821;-84
2022/10/09 07:09:51;;;;;;;;;18.67;16.33;;;;;10.20;100.00;101396.53;4891899;29;46001;-83
2022/10/09 07:12:17;;;;;;;;;19.33;18.00;;;;;10.26;100.00;101387.81;4890891;29;45449;-81
2022/10/09 07:14:42;;;;;;;;;19.33;17.33;;;;;10.34;100.00;101391.63;4871840;29;46330;-81
2022/10/09 07:17:08;;;;;;;;;20.33;20.33;;;;;10.42;100.00;101383.81;4888956;29;45423;-82
2022/10/09 07:19:35;;;;;;;;;22.33;20.33;;;;;10.50;100.00;101381.34;4904015;29;45442;-81
2022/10/09 07:22:00;;;;;;;;;23.33;21.33;;;;;10.56;100.00;101386.81;4872135;29;45407;-81
2022/10/09 07:24:26;;;;;;;;;23.67;21.67;;;;;10.67;100.00;101384.44;4887101;29;45545;-82
2022/10/09 07:26:54;;;;;;;;;22.00;21.67;;;;;10.69;100.00;101375.63;4887422;29;45446;-82
2022/10/09 07:29:26;;;;;;;;;19.00;19.00;;;;;10.82;100.00;101380.34;4889052;29;45428;-82
2022/10/09 07:31:51;;;;;;;;;20.00;19.33;;;;;10.82;100.00;101367.03;4872660;29;45393;-82
2022/10/09 07:34:17;;;;;;;;;22.00;18.00;;;;;10.96;100.00;101380.66;4888346;29;48181;-82
2022/10/09 07:36:42;;;;;;;;;19.00;17.67;;;;;11.04;100.00;101374.63;4889096;29;45383;-82
2022/10/09 07:39:08;;;;;;;;;22.67;21.67;;;;;11.14;100.00;101365.97;4888522;29;44999;-81
2022/10/09 07:41:34;;;;;;;;;21.33;21.33;;;;;11.24;100.00;101367.97;4889391;29;45337;-82
2022/10/09 07:44:01;;;;;;;;;19.67;19.67;;;;;11.30;100.00;101370.75;4889647;29;45454;-83
2022/10/09 07:46:27;;;;;;;;;20.67;19.33;;;;;11.36;100.00;101362.00;4872591;29;45456;-81
2022/10/09 07:48:53;;;;;;;;;17.67;15.00;;;;;11.44;100.00;101370.16;4889339;29;45453;-82
2022/10/09 07:51:25;;;;;;;;;20.00;17.67;;;;;11.50;100.00;101360.53;4891269;29;45387;-83
2022/10/09 07:53:52;;;;;;;;;20.67;18.67;;;;;11.57;100.00;101357.13;4904811;29;46795;-83
2022/10/09 07:56:19;;;;;;;;;20.67;20.67;;;;;11.65;100.00;101343.94;4873797;29;45485;-82
2022/10/09 07:58:49;;;;;;;;;21.67;20.33;;;;;11.76;100.00;101350.38;4888712;29;45731;-83
2022/10/09 08:01:15;;;;;;;;;23.00;22.00;;;;;11.84;100.00;101350.53;4890684;29;45445;-83
2022/10/09 08:03:42;;;;;;;;;20.00;19.00;;;;;11.89;100.00;101342.63;4875717;29;48291;-83
2022/10/09 08:06:09;;;;;;;;;25.00;20.67;;;;;11.95;100.00;101340.09;4891637;29;45369;-82
2022/10/09 08:08:35;;;;;;;;;20.67;20.67;;;;;12.01;100.00;101334.88;4891878;29;44710;-84
2022/10/09 08:11:07;;;;;;;;;22.33;18.67;;;;;12.09;100.00;101351.00;4891181;29;45450;-84
2022/10/09 08:13:32;;;;;;;;;13.33;11.67;;;;;12.13;100.00;101336.84;4890173;29;47395;-82
2022/10/09 08:15:58;;;;;;;;;18.67;18.67;;;;;12.16;100.00;101332.47;4890668;29;45857;-82
2022/10/09 08:18:25;;;;;;;;;21.67;20.67;;;;;12.30;100.00;101330.03;4891463;29;45454;-84
2022/10/09 08:20:58;;;;;;;;;19.33;17.67;;;;;12.41;100.00;101335.53;4889716;29;45370;-84
2022/10/09 08:23:24;;;;;;;;;18.33;18.33;;;;;12.40;100.00;101326.66;4891472;29;45123;-85
2022/10/09 08:25:49;;;;;;;;;16.33;15.33;;;;;12.46;100.00;101332.94;4891032;29;45438;-84
2022/10/09 08:28:15;;;;;;;;;20.00;20.00;;;;;12.52;100.00;101331.28;4892110;29;45554;-83
2022/10/09 08:30:40;;;;;;;;;20.00;18.33;;;;;12.58;100.00;101326.03;4874695;29;45421;-85
2022/10/09 08:33:06;;;;;;;;;19.00;18.00;;;;;12.60;100.00;101313.63;4906214;29;47527;-85
2022/10/09 08:35:31;;;;;;;;;15.00;14.00;;;;;12.66;100.00;101311.91;4892484;29;45252;-83
2022/10/09 08:37:56;;;;;;;;;17.67;17.67;;;;;12.72;100.00;101310.22;4894731;29;45459;-85
2022/10/09 08:40:37;;;;;;;;;21.33;18.67;;;;;12.86;100.00;101313.06;4907605;29;45502;-85
2022/10/09 08:43:05;;;;;;;;;18.67;16.33;;;;;12.94;100.00;101307.84;4877380;29;47074;-85
2022/10/09 08:45:37;;;;;;;;;16.67;15.67;;;;;13.04;99.28;101311.53;4894337;29;45369;-85
2022/10/09 08:48:12;;;;;;;;;18.00;15.00;;;;;13.12;98.00;101309.88;4876789;29;45408;-85
2022/10/09 08:51:30;;;;;;;;;12.33;11.00;;;;;13.17;97.88;101313.50;4894543;29;45446;-85
2022/10/09 08:54:23;;;;;;;;;11.67;10.00;;;;;13.23;96.08;101308.25;4893519;29;46788;-85
2022/10/09 08:56:51;;;;;;;;;11.67;11.33;;;;;13.26;97.01;101304.69;4909345;29;45361;-85
2022/10/09 08:59:16;;;;;;;;;14.67;13.33;;;;;13.36;95.17;101302.19;4877785;29;44832;-84
2022/10/09 09:01:55;;;;;;;;;14.67;13.33;;;;;13.40;95.16;101292.44;4890986;29;44905;-84
2022/10/09 09:07:56;;;;;;;;;12.00;12.00;;;;;13.48;94.32;101285.41;4894822;29;45351;-84
2022/10/09 09:11:03;;;;;;;;;11.33;11.33;;;;;13.58;93.68;101292.63;4893900;29;45377;-84
2022/10/09 09:13:39;;;;;;;;;9.33;9.33;;;;;13.62;92.08;101282.88;4855053;29;45388;-84
2022/10/09 09:16:17;;;;;;;;;12.33;10.67;;;;;13.68;92.59;101282.03;4840216;29;46866;-84
2022/10/09 09:19:02;;;;;;;;;8.00;7.67;;;;;13.74;93.63;101272.28;4840524;29;44791;-84
2022/10/09 09:21:34;;;;;;;;;12.00;12.00;;;;;13.83;92.17;101273.25;4854995;29;45414;-83
2022/10/09 09:24:04;;;;;;;;;8.33;8.00;;;;;13.84;92.19;101275.06;4854761;29;44815;-84
2022/10/09 09:26:31;;;;;;;;;10.00;10.00;;;;;13.89;92.47;101262.63;4840540;29;47283;-84
2022/10/09 09:29:03;;;;;;;;;11.67;11.00;;;;;13.95;91.43;101262.69;4856108;29;45091;-84
2022/10/09 09:31:35;;;;;;;;;10.00;10.00;;;;;13.98;92.96;101252.91;4854802;29;45367;-85
2022/10/09 09:34:10;;;;;;;;;10.00;10.00;;;;;14.11;91.74;101256.56;4839682;29;44859;-85
2022/10/09 09:36:48;;;;;;;;;10.00;10.00;;;;;14.17;90.52;101247.69;4855292;29;45641;-85
2022/10/09 09:39:14;;;;;;;;;7.33;7.33;;;;;14.20;90.80;101250.41;4840848;29;45460;-85
2022/10/09 09:41:41;;;;;;;;;6.67;6.67;;;;;14.23;90.51;101246.84;4839421;29;45427;-85
2022/10/09 09:44:10;;;;;;;;;7.00;7.00;;;;;14.27;90.23;101229.94;4840224;29;44905;-85
2022/10/09 09:46:36;;;;;;;;;12.00;8.00;;;;;14.34;90.06;101221.97;4852776;29;47576;-85
2022/10/09 09:49:13;;;;;;;;;11.67;7.00;;;;;14.40;89.10;101237.13;4872760;29;45358;-85
2022/10/09 09:51:38;;;;;;;;;7.00;6.00;;;;;14.45;89.58;101224.69;4893302;29;45415;-85
2022/10/09 09:54:13;;;;;;;;;7.00;7.00;;;;;14.51;89.53;101230.09;4892623;29;45872;-86
2022/10/09 09:56:41;;;;;;;;;7.33;7.33;;;;;14.58;89.30;101221.25;4892762;29;45339;-85
2022/10/09 09:59:23;;;;;;;;;8.00;6.00;;;;;14.64;89.20;101216.78;4890374;29;45380;-85
2022/10/09 10:02:16;;;;;;;;;9.33;8.33;;;;;14.71;88.51;101222.19;4893057;29;45566;-85
2022/10/09 10:04:55;;;;;;;;;8.67;8.67;;;;;14.74;88.85;101208.81;4892247;29;45664;-86
2022/10/09 10:07:32;;;;;;;;;7.33;7.33;;;;;14.82;87.09;101206.16;4909594;29;47463;-84
2022/10/09 10:10:15;;;;;;;;;8.33;7.33;;;;;14.87;86.87;101209.78;4895390;29;45440;-85
2022/10/09 10:12:44;;;;;;;;;6.00;5.67;;;;;14.89;87.32;101199.06;4907151;29;45408;-85
2022/10/09 10:15:30;;;;;;;;;6.00;6.00;;;;;14.97;87.37;101200.88;4880214;29;44856;-85
2022/10/09 10:18:13;;;;;;;;;7.67;7.00;;;;;15.04;87.99;101198.22;4895475;29;45211;-85
2022/10/09 10:21:00;;;;;;;;;12.67;9.00;;;;;15.07;85.45;101187.50;4894832;29;45457;-85
2022/10/09 10:23:35;;;;;;;;;10.33;8.67;;;;;15.08;85.65;101187.50;4893625;29;45356;-85
2022/10/09 10:26:07;;;;;;;;;7.67;6.00;;;;;15.12;85.27;101185.75;4892167;29;45359;-85
2022/10/09 10:28:58;;;;;;;;;6.00;6.00;;;;;15.13;85.38;101182.19;4891959;29;46623;-85
2022/10/09 10:32:18;;;;;;;;;7.33;6.33;;;;;15.23;87.29;101177.72;4906668;29;45640;-84
2022/10/09 10:35:03;;;;;;;;;5.00;5.00;;;;;15.20;85.65;101150.03;4852356;29;45371;-84
2022/10/09 10:37:40;;;;;;;;;7.67;7.67;;;;;15.37;85.52;101167.91;4852323;29;45536;-84
2022/10/09 10:40:45;;;;;;;;;12.00;8.67;;;;;15.48;86.99;101163.47;4859545;29;45468;-84
2022/10/09 10:43:29;;;;;;;;;5.00;5.00;;;;;15.62;85.62;101158.09;4851417;29;45488;-83
2022/10/09 10:46:01;;;;;;;;;4.67;3.00;;;;;15.70;84.18;101150.06;4861692;29;45571;-84
2022/10/09 10:48:32;;;;;;;;;5.00;5.00;;;;;15.78;84.88;101145.63;4869431;29;45492;-84
2022/10/09 10:51:12;;;;;;;;;8.67;7.00;;;;;15.83;80.97;101133.09;4856008;29;47252;-84
2022/10/09 10:54:13;;;;;;;;;7.00;7.00;;;;;15.87;81.40;101134.88;4855129;29;45492;-84
2022/10/09 10:56:55;;;;;;;;;7.00;7.00;;;;;15.96;82.33;101129.50;4834236;29;45366;-84
2022/10/09 10:59:26;;;;;;;;;7.33;7.33;;;;;16.03;81.29;101138.44;4834430;29;45361;-84
2022/10/09 11:02:13;;;;;;;;;6.33;6.33;;;;;16.06;82.10;101127.69;4819228;29;47485;-84
2022/10/09 11:05:05;;;;;;;;;6.33;5.00;;;;;16.11;81.09;101123.19;4812667;29;45472;-86
2022/10/09 11:07:50;;;;;;;;;6.33;6.00;;;;;16.14;81.78;101117.84;4801794;29;45520;-85
2022/10/09 11:10:55;;;;;;;;;6.33;6.33;;;;;16.16;80.80;101105.31;4819189;29;45340;-84
2022/10/09 11:13:31;;;;;;;;;5.33;5.33;;;;;16.18;80.38;101086.53;4848843;29;46886;-84
2022/10/09 11:16:41;;;;;;;;;6.00;6.00;;;;;16.33;81.04;101101.66;4849088;29;45294;-84
2022/10/09 11:19:12;;;;;;;;;6.67;6.67;;;;;16.39;81.10;101096.28;4796881;29;45419;-85
2022/10/09 11:22:05;;;;;;;;;6.00;6.00;;;;;16.46;80.95;101097.13;4784763;29;44836;-85
2022/10/09 11:24:46;;;;;;;;;5.67;5.67;;;;;16.52;79.18;101092.66;4784328;29;47070;-84
2022/10/09 11:27:28;;;;;;;;;7.00;7.00;;;;;16.56;80.16;101089.06;4785147;29;45511;-85
2022/10/09 11:30:01;;;;;;;;;7.00;6.00;;;;;16.58;80.37;101078.28;4804008;29;45549;-84
2022/10/09 11:32:33;;;;;;;;;6.00;4.67;;;;;16.66;78.97;101073.75;4818083;29;45491;-84
2022/10/09 11:35:11;;;;;;;;;5.33;5.33;;;;;16.72;79.29;101062.09;4813131;29;48099;-84